sensor_id;sensor_type;location;lat;lon;timestamp;P1;durP1;ratioP1;P2;durP2;ratioP2
11078;SDS011;5592;49.234;7.268;2023-08-01T00:01:27;8.03;;;4.87;;
11078;SDS011;5592;49.234;7.268;2023-08-01T00:03:53;8.87;;;4.20;;
11078;SDS011;5592;49.234;7.268;2023-08-01T00:06:19;8.10;;;5.03;;
11078;SDS011;5592;49.234;7.268;2023-08-01T00:08:45;14.20;;;5.50;;
11078;SDS011;5592;49.234;7.268;2023-08-01T00:11:11;9.07;;;4.97;;
11078;SDS011;5592;49.234;7.268;2023-08-01T00:13:39;11.77;;;5.10;;
11078;SDS011;5592;49.234;7.268;2023-08-01T00:16:05;9.37;;;5.47;;
11078;SDS011;5592;49.234;7.268;2023-08-01T00:18:31;8.20;;;4.63;;
11078;SDS011;5592;49.234;7.268;2023-08-01T00:20:56;8.67;;;5.40;;
11078;SDS011;5592;49.234;7.268;2023-08-01T00:23:22;12.17;;;6.00;;
11078;SDS011;5592;49.234;7.268;2023-08-01T00:25:47;11.70;;;6.37;;
11078;SDS011;5592;49.234;7.268;2023-08-01T00:28:16;10.37;;;5.13;;
11078;SDS011;5592;49.234;7.268;2023-08-01T00:30:43;9.47;;;5.60;;
11078;SDS011;5592;49.234;7.268;2023-08-01T00:33:08;9.00;;;4.53;;
11078;SDS011;5592;49.234;7.268;2023-08-01T00:35:34;16.53;;;6.23;;
11078;SDS011;5592;49.234;7.268;2023-08-01T00:37:59;14.27;;;5.47;;
11078;SDS011;5592;49.234;7.268;2023-08-01T00:40:29;10.13;;;6.00;;
11078;SDS011;5592;49.234;7.268;2023-08-01T00:42:56;10.97;;;5.50;;
11078;SDS011;5592;49.234;7.268;2023-08-01T00:45:22;7.50;;;5.67;;
11078;SDS011;5592;49.234;7.268;2023-08-01T00:47:50;8.27;;;5.40;;
11078;SDS011;5592;49.234;7.268;2023-08-01T00:50:16;10.80;;;6.07;;
11078;SDS011;5592;49.234;7.268;2023-08-01T00:52:45;11.73;;;5.93;;
11078;SDS011;5592;49.234;7.268;2023-08-01T00:55:15;8.90;;;5.47;;
11078;SDS011;5592;49.234;7.268;2023-08-01T00:57:41;10.13;;;5.90;;
11078;SDS011;5592;49.234;7.268;2023-08-01T01:00:07;8.80;;;5.97;;
11078;SDS011;5592;49.234;7.268;2023-08-01T01:02:34;9.07;;;5.43;;
11078;SDS011;5592;49.234;7.268;2023-08-01T01:05:00;10.23;;;5.57;;
11078;SDS011;5592;49.234;7.268;2023-08-01T01:07:27;11.10;;;5.27;;
11078;SDS011;5592;49.234;7.268;2023-08-01T01:09:53;9.40;;;5.53;;
11078;SDS011;5592;49.234;7.268;2023-08-01T01:12:19;10.17;;;5.37;;
11078;SDS011;5592;49.234;7.268;2023-08-01T01:14:44;12.57;;;5.63;;
11078;SDS011;5592;49.234;7.268;2023-08-01T01:17:10;12.80;;;5.27;;
11078;SDS011;5592;49.234;7.268;2023-08-01T01:19:36;10.63;;;5.47;;
11078;SDS011;5592;49.234;7.268;2023-08-01T01:22:02;9.47;;;5.27;;
11078;SDS011;5592;49.234;7.268;2023-08-01T01:24:29;11.60;;;5.53;;
11078;SDS011;5592;49.234;7.268;2023-08-01T01:26:57;10.83;;;5.67;;
11078;SDS011;5592;49.234;7.268;2023-08-01T01:29:25;10.73;;;5.97;;
11078;SDS011;5592;49.234;7.268;2023-08-01T01:31:52;9.90;;;5.87;;
11078;SDS011;5592;49.234;7.268;2023-08-01T01:34:18;9.00;;;5.53;;
11078;SDS011;5592;49.234;7.268;2023-08-01T01:36:44;8.17;;;5.17;;
11078;SDS011;5592;49.234;7.268;2023-08-01T01:39:10;9.93;;;5.17;;
11078;SDS011;5592;49.234;7.268;2023-08-01T01:41:36;8.27;;;4.97;;
11078;SDS011;5592;49.234;7.268;2023-08-01T01:44:01;10.70;;;5.10;;
11078;SDS011;5592;49.234;7.268;2023-08-01T01:46:27;8.50;;;5.40;;
11078;SDS011;5592;49.234;7.268;2023-08-01T01:48:52;7.83;;;4.30;;
11078;SDS011;5592;49.234;7.268;2023-08-01T01:51:19;9.00;;;5.60;;
11078;SDS011;5592;49.234;7.268;2023-08-01T01:53:46;12.53;;;6.00;;
11078;SDS011;5592;49.234;7.268;2023-08-01T01:56:12;10.83;;;5.10;;
11078;SDS011;5592;49.234;7.268;2023-08-01T01:58:37;8.10;;;4.80;;
11078;SDS011;5592;49.234;7.268;2023-08-01T02:01:03;11.17;;;4.97;;
11078;SDS011;5592;49.234;7.268;2023-08-01T02:03:28;9.27;;;5.57;;
11078;SDS011;5592;49.234;7.268;2023-08-01T02:05:54;12.13;;;5.20;;
11078;SDS011;5592;49.234;7.268;2023-08-01T02:08:19;12.47;;;4.63;;
11078;SDS011;5592;49.234;7.268;2023-08-01T02:10:45;7.93;;;4.80;;
11078;SDS011;5592;49.234;7.268;2023-08-01T02:13:10;12.07;;;5.70;;
11078;SDS011;5592;49.234;7.268;2023-08-01T02:15:36;11.13;;;5.33;;
11078;SDS011;5592;49.234;7.268;2023-08-01T02:18:02;8.47;;;5.57;;
11078;SDS011;5592;49.234;7.268;2023-08-01T02:20:27;15.93;;;5.90;;
11078;SDS011;5592;49.234;7.268;2023-08-01T02:22:56;10.40;;;5.07;;
11078;SDS011;5592;49.234;7.268;2023-08-01T02:25:22;6.20;;;4.70;;
11078;SDS011;5592;49.234;7.268;2023-08-01T02:27:47;8.90;;;5.20;;
11078;SDS011;5592;49.234;7.268;2023-08-01T02:30:13;14.37;;;5.53;;
11078;SDS011;5592;49.234;7.268;2023-08-01T02:32:38;15.80;;;5.40;;
11078;SDS011;5592;49.234;7.268;2023-08-01T02:35:04;7.30;;;5.03;;
11078;SDS011;5592;49.234;7.268;2023-08-01T02:37:30;10.43;;;4.80;;
11078;SDS011;5592;49.234;7.268;2023-08-01T02:39:55;5.50;;;4.27;;
11078;SDS011;5592;49.234;7.268;2023-08-01T02:42:21;15.30;;;5.53;;
11078;SDS011;5592;49.234;7.268;2023-08-01T02:44:47;13.63;;;5.73;;
11078;SDS011;5592;49.234;7.268;2023-08-01T02:47:12;8.63;;;4.63;;
11078;SDS011;5592;49.234;7.268;2023-08-01T02:49:37;11.47;;;4.47;;
11078;SDS011;5592;49.234;7.268;2023-08-01T02:52:04;8.27;;;4.13;;
11078;SDS011;5592;49.234;7.268;2023-08-01T02:54:30;11.50;;;4.40;;
11078;SDS011;5592;49.234;7.268;2023-08-01T02:56:55;7.90;;;4.47;;
11078;SDS011;5592;49.234;7.268;2023-08-01T02:59:21;7.63;;;4.67;;
11078;SDS011;5592;49.234;7.268;2023-08-01T03:01:46;10.77;;;4.90;;
11078;SDS011;5592;49.234;7.268;2023-08-01T03:04:12;9.33;;;4.77;;
11078;SDS011;5592;49.234;7.268;2023-08-01T03:06:37;10.23;;;4.87;;
11078;SDS011;5592;49.234;7.268;2023-08-01T03:09:04;11.93;;;5.00;;
11078;SDS011;5592;49.234;7.268;2023-08-01T03:11:32;11.07;;;5.27;;
11078;SDS011;5592;49.234;7.268;2023-08-01T03:13:58;9.67;;;4.50;;
11078;SDS011;5592;49.234;7.268;2023-08-01T03:16:24;11.13;;;4.63;;
11078;SDS011;5592;49.234;7.268;2023-08-01T03:18:49;7.10;;;4.70;;
11078;SDS011;5592;49.234;7.268;2023-08-01T03:21:15;8.43;;;4.83;;
11078;SDS011;5592;49.234;7.268;2023-08-01T03:23:41;6.90;;;4.83;;
11078;SDS011;5592;49.234;7.268;2023-08-01T03:26:06;8.57;;;4.60;;
11078;SDS011;5592;49.234;7.268;2023-08-01T03:28:32;9.17;;;5.00;;
11078;SDS011;5592;49.234;7.268;2023-08-01T03:30:58;12.57;;;4.80;;
11078;SDS011;5592;49.234;7.268;2023-08-01T03:33:23;11.70;;;5.70;;
11078;SDS011;5592;49.234;7.268;2023-08-01T03:35:49;7.40;;;5.50;;
11078;SDS011;5592;49.234;7.268;2023-08-01T03:38:14;10.83;;;5.07;;
11078;SDS011;5592;49.234;7.268;2023-08-01T03:40:40;8.73;;;5.20;;
11078;SDS011;5592;49.234;7.268;2023-08-01T03:43:06;12.50;;;6.30;;
11078;SDS011;5592;49.234;7.268;2023-08-01T03:45:32;8.53;;;5.43;;
11078;SDS011;5592;49.234;7.268;2023-08-01T03:47:58;7.83;;;5.63;;
11078;SDS011;5592;49.234;7.268;2023-08-01T03:50:24;10.30;;;6.47;;
11078;SDS011;5592;49.234;7.268;2023-08-01T03:52:49;8.60;;;6.00;;
11078;SDS011;5592;49.234;7.268;2023-08-01T03:55:15;9.87;;;5.50;;
11078;SDS011;5592;49.234;7.268;2023-08-01T03:57:41;9.13;;;5.23;;
11078;SDS011;5592;49.234;7.268;2023-08-01T04:00:08;8.93;;;5.73;;
11078;SDS011;5592;49.234;7.268;2023-08-01T04:02:43;12.30;;;6.70;;
11078;SDS011;5592;49.234;7.268;2023-08-01T04:05:09;14.73;;;6.63;;
11078;SDS011;5592;49.234;7.268;2023-08-01T04:07:35;11.07;;;7.57;;
11078;SDS011;5592;49.234;7.268;2023-08-01T04:10:04;9.83;;;6.10;;
11078;SDS011;5592;49.234;7.268;2023-08-01T04:12:31;11.80;;;5.93;;
11078;SDS011;5592;49.234;7.268;2023-08-01T04:14:57;10.83;;;6.67;;
11078;SDS011;5592;49.234;7.268;2023-08-01T04:17:23;10.00;;;6.40;;
11078;SDS011;5592;49.234;7.268;2023-08-01T04:19:49;10.03;;;6.63;;
11078;SDS011;5592;49.234;7.268;2023-08-01T04:22:15;8.90;;;6.07;;
11078;SDS011;5592;49.234;7.268;2023-08-01T04:24:40;10.73;;;6.80;;
11078;SDS011;5592;49.234;7.268;2023-08-01T04:27:06;13.13;;;6.63;;
11078;SDS011;5592;49.234;7.268;2023-08-01T04:29:32;8.93;;;6.53;;
11078;SDS011;5592;49.234;7.268;2023-08-01T04:31:57;13.07;;;7.30;;
11078;SDS011;5592;49.234;7.268;2023-08-01T04:34:23;10.23;;;7.03;;
11078;SDS011;5592;49.234;7.268;2023-08-01T04:36:48;15.33;;;7.00;;
11078;SDS011;5592;49.234;7.268;2023-08-01T04:39:14;10.33;;;6.53;;
11078;SDS011;5592;49.234;7.268;2023-08-01T04:41:42;11.90;;;6.37;;
11078;SDS011;5592;49.234;7.268;2023-08-01T04:44:08;9.70;;;6.30;;
11078;SDS011;5592;49.234;7.268;2023-08-01T04:46:33;12.03;;;6.80;;
11078;SDS011;5592;49.234;7.268;2023-08-01T04:48:59;8.67;;;6.17;;
11078;SDS011;5592;49.234;7.268;2023-08-01T04:51:25;12.43;;;7.33;;
11078;SDS011;5592;49.234;7.268;2023-08-01T04:53:51;13.20;;;5.93;;
11078;SDS011;5592;49.234;7.268;2023-08-01T04:56:16;7.20;;;5.80;;
11078;SDS011;5592;49.234;7.268;2023-08-01T04:58:42;7.57;;;5.30;;
11078;SDS011;5592;49.234;7.268;2023-08-01T05:01:07;7.87;;;5.50;;
11078;SDS011;5592;49.234;7.268;2023-08-01T05:03:36;7.93;;;5.03;;
11078;SDS011;5592;49.234;7.268;2023-08-01T05:06:01;4.50;;;3.90;;
11078;SDS011;5592;49.234;7.268;2023-08-01T05:08:27;7.03;;;4.67;;
11078;SDS011;5592;49.234;7.268;2023-08-01T05:10:52;5.87;;;3.80;;
11078;SDS011;5592;49.234;7.268;2023-08-01T05:13:18;7.87;;;3.50;;
11078;SDS011;5592;49.234;7.268;2023-08-01T05:15:44;5.60;;;3.73;;
11078;SDS011;5592;49.234;7.268;2023-08-01T05:18:14;4.50;;;3.43;;
11078;SDS011;5592;49.234;7.268;2023-08-01T05:20:41;7.90;;;3.67;;
11078;SDS011;5592;49.234;7.268;2023-08-01T05:23:06;3.43;;;3.03;;
11078;SDS011;5592;49.234;7.268;2023-08-01T05:25:32;5.90;;;3.90;;
11078;SDS011;5592;49.234;7.268;2023-08-01T05:27:57;3.87;;;2.30;;
11078;SDS011;5592;49.234;7.268;2023-08-01T05:30:24;3.80;;;2.30;;
11078;SDS011;5592;49.234;7.268;2023-08-01T05:32:49;4.20;;;2.90;;
11078;SDS011;5592;49.234;7.268;2023-08-01T05:35:15;3.47;;;2.57;;
11078;SDS011;5592;49.234;7.268;2023-08-01T05:37:41;3.57;;;2.47;;
11078;SDS011;5592;49.234;7.268;2023-08-01T05:40:06;3.23;;;2.20;;
11078;SDS011;5592;49.234;7.268;2023-08-01T05:42:32;3.63;;;2.60;;
11078;SDS011;5592;49.234;7.268;2023-08-01T05:44:58;2.07;;;1.77;;
11078;SDS011;5592;49.234;7.268;2023-08-01T05:47:23;1.83;;;1.70;;
11078;SDS011;5592;49.234;7.268;2023-08-01T05:49:49;2.10;;;1.90;;
11078;SDS011;5592;49.234;7.268;2023-08-01T05:52:15;5.63;;;1.63;;
11078;SDS011;5592;49.234;7.268;2023-08-01T05:54:40;6.40;;;1.53;;
11078;SDS011;5592;49.234;7.268;2023-08-01T05:57:06;2.73;;;1.67;;
11078;SDS011;5592;49.234;7.268;2023-08-01T05:59:32;1.40;;;1.30;;
11078;SDS011;5592;49.234;7.268;2023-08-01T06:01:58;1.67;;;1.37;;
11078;SDS011;5592;49.234;7.268;2023-08-01T06:04:23;2.70;;;1.87;;
11078;SDS011;5592;49.234;7.268;2023-08-01T06:06:49;1.70;;;1.60;;
11078;SDS011;5592;49.234;7.268;2023-08-01T06:09:14;1.87;;;1.60;;
11078;SDS011;5592;49.234;7.268;2023-08-01T06:11:40;3.17;;;1.27;;
11078;SDS011;5592;49.234;7.268;2023-08-01T06:14:06;2.60;;;1.40;;
11078;SDS011;5592;49.234;7.268;2023-08-01T06:16:31;2.40;;;1.40;;
11078;SDS011;5592;49.234;7.268;2023-08-01T06:18:57;2.23;;;1.30;;
11078;SDS011;5592;49.234;7.268;2023-08-01T06:21:24;3.40;;;1.70;;
11078;SDS011;5592;49.234;7.268;2023-08-01T06:23:50;1.50;;;1.40;;
11078;SDS011;5592;49.234;7.268;2023-08-01T06:26:15;3.10;;;1.33;;
11078;SDS011;5592;49.234;7.268;2023-08-01T06:28:41;1.13;;;1.03;;
11078;SDS011;5592;49.234;7.268;2023-08-01T06:31:07;1.20;;;0.90;;
11078;SDS011;5592;49.234;7.268;2023-08-01T06:33:32;0.87;;;0.80;;
11078;SDS011;5592;49.234;7.268;2023-08-01T06:35:58;2.03;;;0.80;;
11078;SDS011;5592;49.234;7.268;2023-08-01T06:38:23;1.33;;;0.87;;
11078;SDS011;5592;49.234;7.268;2023-08-01T06:40:49;1.83;;;0.97;;
11078;SDS011;5592;49.234;7.268;2023-08-01T06:43:14;0.63;;;0.63;;
11078;SDS011;5592;49.234;7.268;2023-08-01T06:45:40;4.30;;;0.90;;
11078;SDS011;5592;49.234;7.268;2023-08-01T06:48:05;0.60;;;0.60;;
11078;SDS011;5592;49.234;7.268;2023-08-01T06:50:31;0.63;;;0.63;;
11078;SDS011;5592;49.234;7.268;2023-08-01T06:52:57;1.20;;;0.70;;
11078;SDS011;5592;49.234;7.268;2023-08-01T06:55:23;1.07;;;0.90;;
11078;SDS011;5592;49.234;7.268;2023-08-01T06:57:48;2.60;;;0.70;;
11078;SDS011;5592;49.234;7.268;2023-08-01T07:00:14;1.13;;;0.70;;
11078;SDS011;5592;49.234;7.268;2023-08-01T07:02:39;0.70;;;0.70;;
11078;SDS011;5592;49.234;7.268;2023-08-01T07:05:05;1.83;;;0.80;;
11078;SDS011;5592;49.234;7.268;2023-08-01T07:07:31;1.10;;;1.00;;
11078;SDS011;5592;49.234;7.268;2023-08-01T07:09:59;1.23;;;0.70;;
11078;SDS011;5592;49.234;7.268;2023-08-01T07:12:25;0.70;;;0.70;;
11078;SDS011;5592;49.234;7.268;2023-08-01T07:14:50;1.13;;;0.60;;
11078;SDS011;5592;49.234;7.268;2023-08-01T07:17:16;2.50;;;0.60;;
11078;SDS011;5592;49.234;7.268;2023-08-01T07:19:42;1.40;;;0.80;;
11078;SDS011;5592;49.234;7.268;2023-08-01T07:22:08;0.87;;;0.70;;
11078;SDS011;5592;49.234;7.268;2023-08-01T07:24:34;1.13;;;0.80;;
11078;SDS011;5592;49.234;7.268;2023-08-01T07:26:59;0.80;;;0.80;;
11078;SDS011;5592;49.234;7.268;2023-08-01T07:29:25;0.80;;;0.70;;
11078;SDS011;5592;49.234;7.268;2023-08-01T07:31:50;3.70;;;1.03;;
11078;SDS011;5592;49.234;7.268;2023-08-01T07:34:16;0.73;;;0.73;;
11078;SDS011;5592;49.234;7.268;2023-08-01T07:36:41;1.67;;;0.90;;
11078;SDS011;5592;49.234;7.268;2023-08-01T07:39:07;1.10;;;0.80;;
11078;SDS011;5592;49.234;7.268;2023-08-01T07:41:33;2.20;;;1.03;;
11078;SDS011;5592;49.234;7.268;2023-08-01T07:44:00;0.87;;;0.87;;
11078;SDS011;5592;49.234;7.268;2023-08-01T07:46:27;0.80;;;0.80;;
11078;SDS011;5592;49.234;7.268;2023-08-01T07:48:52;2.80;;;1.00;;
11078;SDS011;5592;49.234;7.268;2023-08-01T07:51:19;2.03;;;1.10;;
11078;SDS011;5592;49.234;7.268;2023-08-01T07:53:44;1.70;;;1.00;;
11078;SDS011;5592;49.234;7.268;2023-08-01T07:56:10;1.00;;;0.90;;
11078;SDS011;5592;49.234;7.268;2023-08-01T07:58:35;1.47;;;1.00;;
11078;SDS011;5592;49.234;7.268;2023-08-01T08:01:04;1.30;;;1.00;;
11078;SDS011;5592;49.234;7.268;2023-08-01T08:03:30;0.80;;;0.80;;
11078;SDS011;5592;49.234;7.268;2023-08-01T08:05:56;1.10;;;1.00;;
11078;SDS011;5592;49.234;7.268;2023-08-01T08:08:22;1.63;;;0.90;;
11078;SDS011;5592;49.234;7.268;2023-08-01T08:10:48;0.97;;;0.97;;
11078;SDS011;5592;49.234;7.268;2023-08-01T08:13:13;2.30;;;1.10;;
11078;SDS011;5592;49.234;7.268;2023-08-01T08:15:39;1.27;;;1.07;;
11078;SDS011;5592;49.234;7.268;2023-08-01T08:18:04;2.03;;;0.90;;
11078;SDS011;5592;49.234;7.268;2023-08-01T08:20:30;1.77;;;1.17;;
11078;SDS011;5592;49.234;7.268;2023-08-01T08:22:57;1.10;;;1.00;;
11078;SDS011;5592;49.234;7.268;2023-08-01T08:25:22;1.60;;;1.03;;
11078;SDS011;5592;49.234;7.268;2023-08-01T08:27:51;1.30;;;1.00;;
11078;SDS011;5592;49.234;7.268;2023-08-01T08:30:16;2.43;;;1.20;;
11078;SDS011;5592;49.234;7.268;2023-08-01T08:32:42;1.37;;;1.20;;
11078;SDS011;5592;49.234;7.268;2023-08-01T08:35:08;2.17;;;1.40;;
11078;SDS011;5592;49.234;7.268;2023-08-01T08:37:33;1.30;;;1.20;;
11078;SDS011;5592;49.234;7.268;2023-08-01T08:39:59;2.13;;;1.30;;
11078;SDS011;5592;49.234;7.268;2023-08-01T08:42:24;3.33;;;1.43;;
11078;SDS011;5592;49.234;7.268;2023-08-01T08:44:50;1.73;;;1.20;;
11078;SDS011;5592;49.234;7.268;2023-08-01T08:47:20;1.70;;;1.20;;
11078;SDS011;5592;49.234;7.268;2023-08-01T08:49:51;1.50;;;1.40;;
11078;SDS011;5592;49.234;7.268;2023-08-01T08:52:18;1.93;;;1.20;;
11078;SDS011;5592;49.234;7.268;2023-08-01T08:54:44;1.80;;;1.60;;
11078;SDS011;5592;49.234;7.268;2023-08-01T08:57:14;1.73;;;1.60;;
11078;SDS011;5592;49.234;7.268;2023-08-01T08:59:40;3.93;;;1.73;;
11078;SDS011;5592;49.234;7.268;2023-08-01T09:02:07;3.07;;;1.73;;
11078;SDS011;5592;49.234;7.268;2023-08-01T09:04:33;6.70;;;2.00;;
11078;SDS011;5592;49.234;7.268;2023-08-01T09:07:01;2.60;;;1.60;;
11078;SDS011;5592;49.234;7.268;2023-08-01T09:09:31;2.47;;;1.90;;
11078;SDS011;5592;49.234;7.268;2023-08-01T09:11:57;5.03;;;2.07;;
11078;SDS011;5592;49.234;7.268;2023-08-01T09:14:23;2.30;;;1.80;;
11078;SDS011;5592;49.234;7.268;2023-08-01T09:16:49;3.10;;;1.90;;
11078;SDS011;5592;49.234;7.268;2023-08-01T09:19:18;6.00;;;2.00;;
11078;SDS011;5592;49.234;7.268;2023-08-01T09:21:45;2.10;;;1.50;;
11078;SDS011;5592;49.234;7.268;2023-08-01T09:24:13;2.67;;;2.10;;
11078;SDS011;5592;49.234;7.268;2023-08-01T09:26:40;3.90;;;1.80;;
11078;SDS011;5592;49.234;7.268;2023-08-01T09:29:06;2.77;;;2.00;;
11078;SDS011;5592;49.234;7.268;2023-08-01T09:31:33;3.77;;;2.20;;
11078;SDS011;5592;49.234;7.268;2023-08-01T09:34:00;3.80;;;2.27;;
11078;SDS011;5592;49.234;7.268;2023-08-01T09:36:28;6.50;;;2.00;;
11078;SDS011;5592;49.234;7.268;2023-08-01T09:38:58;1.80;;;1.70;;
11078;SDS011;5592;49.234;7.268;2023-08-01T09:41:28;3.57;;;1.80;;
11078;SDS011;5592;49.234;7.268;2023-08-01T09:43:55;6.13;;;2.20;;
11078;SDS011;5592;49.234;7.268;2023-08-01T09:46:20;2.13;;;1.93;;
11078;SDS011;5592;49.234;7.268;2023-08-01T09:48:46;3.53;;;2.57;;
11078;SDS011;5592;49.234;7.268;2023-08-01T09:51:12;5.10;;;2.30;;
11078;SDS011;5592;49.234;7.268;2023-08-01T09:53:49;2.37;;;2.07;;
11078;SDS011;5592;49.234;7.268;2023-08-01T09:56:19;1.97;;;1.77;;
11078;SDS011;5592;49.234;7.268;2023-08-01T09:58:52;5.83;;;1.90;;
11078;SDS011;5592;49.234;7.268;2023-08-01T10:01:20;2.10;;;1.90;;
11078;SDS011;5592;49.234;7.268;2023-08-01T10:03:48;2.47;;;2.10;;
11078;SDS011;5592;49.234;7.268;2023-08-01T10:06:19;2.27;;;2.00;;
11078;SDS011;5592;49.234;7.268;2023-08-01T10:08:45;2.10;;;1.63;;
11078;SDS011;5592;49.234;7.268;2023-08-01T10:11:12;5.53;;;2.07;;
11078;SDS011;5592;49.234;7.268;2023-08-01T10:13:42;3.10;;;1.77;;
11078;SDS011;5592;49.234;7.268;2023-08-01T10:16:08;2.40;;;1.60;;
11078;SDS011;5592;49.234;7.268;2023-08-01T10:18:36;3.30;;;2.10;;
11078;SDS011;5592;49.234;7.268;2023-08-01T10:21:04;3.47;;;1.90;;
11078;SDS011;5592;49.234;7.268;2023-08-01T10:23:32;5.53;;;1.70;;
11078;SDS011;5592;49.234;7.268;2023-08-01T10:25:58;2.30;;;1.77;;
11078;SDS011;5592;49.234;7.268;2023-08-01T10:28:36;3.10;;;1.97;;
11078;SDS011;5592;49.234;7.268;2023-08-01T10:31:07;2.67;;;1.70;;
11078;SDS011;5592;49.234;7.268;2023-08-01T10:33:36;4.93;;;1.20;;
11078;SDS011;5592;49.234;7.268;2023-08-01T10:36:13;2.13;;;1.87;;
11078;SDS011;5592;49.234;7.268;2023-08-01T10:38:51;2.23;;;1.63;;
11078;SDS011;5592;49.234;7.268;2023-08-01T10:41:19;3.30;;;1.40;;
11078;SDS011;5592;49.234;7.268;2023-08-01T10:43:46;1.83;;;1.40;;
11078;SDS011;5592;49.234;7.268;2023-08-01T10:46:11;2.30;;;1.63;;
11078;SDS011;5592;49.234;7.268;2023-08-01T10:48:50;1.90;;;1.60;;
11078;SDS011;5592;49.234;7.268;2023-08-01T10:51:17;3.93;;;2.10;;
11078;SDS011;5592;49.234;7.268;2023-08-01T10:53:43;2.70;;;1.90;;
11078;SDS011;5592;49.234;7.268;2023-08-01T10:56:15;3.13;;;1.80;;
11078;SDS011;5592;49.234;7.268;2023-08-01T10:58:42;2.40;;;1.53;;
11078;SDS011;5592;49.234;7.268;2023-08-01T11:01:07;2.87;;;1.70;;
11078;SDS011;5592;49.234;7.268;2023-08-01T11:03:36;3.13;;;1.97;;
11078;SDS011;5592;49.234;7.268;2023-08-01T11:06:02;4.13;;;1.67;;
11078;SDS011;5592;49.234;7.268;2023-08-01T11:08:38;5.27;;;1.83;;
11078;SDS011;5592;49.234;7.268;2023-08-01T11:11:05;2.67;;;1.80;;
11078;SDS011;5592;49.234;7.268;2023-08-01T11:13:35;3.53;;;2.00;;
11078;SDS011;5592;49.234;7.268;2023-08-01T11:16:02;2.23;;;1.60;;
11078;SDS011;5592;49.234;7.268;2023-08-01T11:18:41;2.73;;;1.77;;
11078;SDS011;5592;49.234;7.268;2023-08-01T11:21:07;2.60;;;1.63;;
11078;SDS011;5592;49.234;7.268;2023-08-01T11:23:32;1.90;;;1.50;;
11078;SDS011;5592;49.234;7.268;2023-08-01T11:25:58;3.77;;;2.00;;
11078;SDS011;5592;49.234;7.268;2023-08-01T11:28:24;2.73;;;1.63;;
11078;SDS011;5592;49.234;7.268;2023-08-01T11:30:49;4.30;;;1.97;;
11078;SDS011;5592;49.234;7.268;2023-08-01T11:33:17;3.50;;;2.10;;
11078;SDS011;5592;49.234;7.268;2023-08-01T11:35:50;2.80;;;1.87;;
11078;SDS011;5592;49.234;7.268;2023-08-01T11:38:18;3.00;;;1.90;;
11078;SDS011;5592;49.234;7.268;2023-08-01T11:40:45;5.00;;;2.37;;
11078;SDS011;5592;49.234;7.268;2023-08-01T11:43:14;2.43;;;1.87;;
11078;SDS011;5592;49.234;7.268;2023-08-01T11:45:47;4.47;;;2.30;;
11078;SDS011;5592;49.234;7.268;2023-08-01T11:48:14;3.00;;;1.70;;
11078;SDS011;5592;49.234;7.268;2023-08-01T11:50:39;2.90;;;1.97;;
11078;SDS011;5592;49.234;7.268;2023-08-01T11:53:05;6.70;;;1.70;;
11078;SDS011;5592;49.234;7.268;2023-08-01T11:55:30;2.63;;;1.80;;
11078;SDS011;5592;49.234;7.268;2023-08-01T11:58:01;2.20;;;1.67;;
11078;SDS011;5592;49.234;7.268;2023-08-01T12:00:27;6.93;;;1.90;;
11078;SDS011;5592;49.234;7.268;2023-08-01T12:03:06;3.73;;;2.10;;
11078;SDS011;5592;49.234;7.268;2023-08-01T12:05:34;4.97;;;2.30;;
11078;SDS011;5592;49.234;7.268;2023-08-01T12:08:09;2.97;;;2.20;;
11078;SDS011;5592;49.234;7.268;2023-08-01T12:10:37;3.40;;;1.60;;
11078;SDS011;5592;49.234;7.268;2023-08-01T12:13:06;3.47;;;1.80;;
11078;SDS011;5592;49.234;7.268;2023-08-01T12:15:43;2.53;;;1.80;;
11078;SDS011;5592;49.234;7.268;2023-08-01T12:18:08;4.80;;;1.90;;
11078;SDS011;5592;49.234;7.268;2023-08-01T12:20:34;3.60;;;1.60;;
11078;SDS011;5592;49.234;7.268;2023-08-01T12:22:59;3.67;;;1.57;;
11078;SDS011;5592;49.234;7.268;2023-08-01T12:25:25;3.43;;;1.53;;
11078;SDS011;5592;49.234;7.268;2023-08-01T12:27:51;4.43;;;1.87;;
11078;SDS011;5592;49.234;7.268;2023-08-01T12:30:16;2.50;;;1.67;;
11078;SDS011;5592;49.234;7.268;2023-08-01T12:32:42;3.63;;;1.67;;
11078;SDS011;5592;49.234;7.268;2023-08-01T12:35:07;2.17;;;1.73;;
11078;SDS011;5592;49.234;7.268;2023-08-01T12:37:33;3.20;;;1.83;;
11078;SDS011;5592;49.234;7.268;2023-08-01T12:39:59;2.37;;;1.73;;
11078;SDS011;5592;49.234;7.268;2023-08-01T12:42:24;3.17;;;1.93;;
11078;SDS011;5592;49.234;7.268;2023-08-01T12:44:50;3.90;;;1.80;;
11078;SDS011;5592;49.234;7.268;2023-08-01T12:47:15;3.70;;;2.03;;
11078;SDS011;5592;49.234;7.268;2023-08-01T12:49:41;1.67;;;1.50;;
11078;SDS011;5592;49.234;7.268;2023-08-01T12:52:06;1.70;;;1.53;;
11078;SDS011;5592;49.234;7.268;2023-08-01T12:54:32;3.93;;;1.83;;
11078;SDS011;5592;49.234;7.268;2023-08-01T12:56:57;3.53;;;1.80;;
11078;SDS011;5592;49.234;7.268;2023-08-01T12:59:23;5.10;;;2.03;;
11078;SDS011;5592;49.234;7.268;2023-08-01T13:01:48;3.27;;;2.00;;
11078;SDS011;5592;49.234;7.268;2023-08-01T13:04:14;3.57;;;1.70;;
11078;SDS011;5592;49.234;7.268;2023-08-01T13:06:39;6.17;;;1.60;;
11078;SDS011;5592;49.234;7.268;2023-08-01T13:09:05;3.70;;;1.93;;
11078;SDS011;5592;49.234;7.268;2023-08-01T13:11:31;2.60;;;1.70;;
11078;SDS011;5592;49.234;7.268;2023-08-01T13:13:57;3.53;;;1.90;;
11078;SDS011;5592;49.234;7.268;2023-08-01T13:16:22;5.37;;;1.90;;
11078;SDS011;5592;49.234;7.268;2023-08-01T13:18:48;2.50;;;1.57;;
11078;SDS011;5592;49.234;7.268;2023-08-01T13:21:13;3.67;;;1.77;;
11078;SDS011;5592;49.234;7.268;2023-08-01T13:23:39;3.50;;;1.60;;
11078;SDS011;5592;49.234;7.268;2023-08-01T13:26:04;6.23;;;2.00;;
11078;SDS011;5592;49.234;7.268;2023-08-01T13:28:31;2.83;;;1.83;;
11078;SDS011;5592;49.234;7.268;2023-08-01T13:30:57;2.37;;;1.60;;
11078;SDS011;5592;49.234;7.268;2023-08-01T13:33:22;5.17;;;1.53;;
11078;SDS011;5592;49.234;7.268;2023-08-01T13:35:50;4.23;;;1.87;;
11078;SDS011;5592;49.234;7.268;2023-08-01T13:38:17;3.30;;;1.90;;
11078;SDS011;5592;49.234;7.268;2023-08-01T13:40:43;3.63;;;1.67;;
11078;SDS011;5592;49.234;7.268;2023-08-01T13:43:11;4.10;;;1.57;;
11078;SDS011;5592;49.234;7.268;2023-08-01T13:45:37;6.13;;;1.40;;
11078;SDS011;5592;49.234;7.268;2023-08-01T13:48:02;5.43;;;1.67;;
11078;SDS011;5592;49.234;7.268;2023-08-01T13:50:28;7.90;;;1.47;;
11078;SDS011;5592;49.234;7.268;2023-08-01T13:52:55;3.40;;;1.43;;
11078;SDS011;5592;49.234;7.268;2023-08-01T13:55:20;5.47;;;2.10;;
11078;SDS011;5592;49.234;7.268;2023-08-01T13:57:46;3.63;;;1.60;;
11078;SDS011;5592;49.234;7.268;2023-08-01T14:00:12;2.47;;;1.53;;
11078;SDS011;5592;49.234;7.268;2023-08-01T14:02:38;2.27;;;1.60;;
11078;SDS011;5592;49.234;7.268;2023-08-01T14:05:03;3.63;;;1.60;;
11078;SDS011;5592;49.234;7.268;2023-08-01T14:07:29;2.13;;;1.53;;
11078;SDS011;5592;49.234;7.268;2023-08-01T14:09:55;2.53;;;1.30;;
11078;SDS011;5592;49.234;7.268;2023-08-01T14:12:20;3.10;;;1.70;;
11078;SDS011;5592;49.234;7.268;2023-08-01T14:14:47;2.53;;;1.50;;
11078;SDS011;5592;49.234;7.268;2023-08-01T14:17:12;4.37;;;2.00;;
11078;SDS011;5592;49.234;7.268;2023-08-01T14:19:38;1.90;;;1.70;;
11078;SDS011;5592;49.234;7.268;2023-08-01T14:22:03;4.60;;;1.67;;
11078;SDS011;5592;49.234;7.268;2023-08-01T14:24:30;1.63;;;1.53;;
11078;SDS011;5592;49.234;7.268;2023-08-01T14:26:56;2.50;;;1.43;;
11078;SDS011;5592;49.234;7.268;2023-08-01T14:29:21;7.63;;;1.80;;
11078;SDS011;5592;49.234;7.268;2023-08-01T14:31:48;5.43;;;1.70;;
11078;SDS011;5592;49.234;7.268;2023-08-01T14:34:17;2.50;;;1.90;;
11078;SDS011;5592;49.234;7.268;2023-08-01T14:36:43;6.47;;;1.90;;
11078;SDS011;5592;49.234;7.268;2023-08-01T14:39:08;2.83;;;1.90;;
11078;SDS011;5592;49.234;7.268;2023-08-01T14:41:34;3.27;;;1.80;;
11078;SDS011;5592;49.234;7.268;2023-08-01T14:43:59;11.83;;;2.07;;
11078;SDS011;5592;49.234;7.268;2023-08-01T14:46:25;2.10;;;1.73;;
11078;SDS011;5592;49.234;7.268;2023-08-01T14:48:50;5.10;;;2.10;;
11078;SDS011;5592;49.234;7.268;2023-08-01T14:51:16;3.53;;;1.70;;
11078;SDS011;5592;49.234;7.268;2023-08-01T14:53:42;1.70;;;1.30;;